LDOS

Osijek Airport

Osijek, Croatia
TAF LDOS 162325Z 1700/1800 20006KT 9999 FEW030 TX26/1713Z TN17/1704Z PROB40 TEMPO 1701/1709 VRB15KT TSRA FEW030CB BKN040 PROB30 TEMPO 1705/1710 RA BKN010 PROB40 TEMPO 1714/1719 TSRA FEW035CB BECMG 1718/1720 30010KT
Issued Valid From Valid To
Jul-16 @ 23:25 UTC
(58 minutes ago)
Jul-17 @ 00:00 UTC
(23 minutes ago)
Jul-18 @ 00:00 UTC
(in 24 hours)
Jul-17 @ 00:00 to Jul-17 @ 18:00
TAF LDOS 162325Z 1700/1800 20006KT 9999 FEW030 TX26/1713Z TN17/1704Z
Wind Visibility Clouds
200° at 6 knots 10,000+ meters
  • Few at 3,000' AGL
Temporary  (Probability 40%) Jul-17 @ 01:00 to Jul-17 @ 09:00
PROB40 TEMPO 1701/1709 VRB15KT TSRA FEW030CB BKN040
Wind Clouds Conditions
Variable at 15 knots
  • Few at 3,000' AGL
  • Broken at 4,000' AGL
  • Thunderstorm
  • Rain
Temporary  (Probability 30%) Jul-17 @ 05:00 to Jul-17 @ 10:00
PROB30 TEMPO 1705/1710 RA BKN010
Clouds Conditions
  • Broken at 1,000' AGL
  • Rain
Temporary  (Probability 40%) Jul-17 @ 14:00 to Jul-17 @ 19:00
PROB40 TEMPO 1714/1719 TSRA FEW035CB
Clouds Conditions
  • Few at 3,500' AGL
  • Thunderstorm
  • Rain
Becoming Jul-17 @ 18:00 to Jul-18 @ 00:00
BECMG 1718/1720 30010KT
Wind Visibility Clouds
300° at 10 knots 10,000+ meters
  • Few at 3,000' AGL
TAF LDOS 162325Z 1700/1800 20006KT 9999 FEW030 TX26/1713Z TN17/1704Z PROB40 TEMPO 1701/1709 VRB15KT TSRA FEW030CB BKN040 PROB30 TEMPO 1705/1710 RA BKN010 PROB40 TEMPO 1714/1719 TSRA FEW035CB BECMG 1718/1720 30010KT
Issued Jul-16 @ 23:25 UTC
(58 minutes ago)
Valid From Jul-17 @ 00:00 UTC
(23 minutes ago)
Valid To Jul-18 @ 00:00 UTC
(in 24 hours)
Jul-17 @ 00:00 - Jul-17 @ 18:00
Wind Visibility
200° at 6 knots 10,000+ meters
Clouds
  • Few at 3,000' AGL
Probability 40% Temporary Jul-17 @ 01:00 - Jul-17 @ 09:00
Wind
Variable at 15 knots
Clouds
  • Few at 3,000' AGL
  • Broken at 4,000' AGL
Conditions
  • Thunderstorm
  • Rain
Probability 30% Temporary Jul-17 @ 05:00 - Jul-17 @ 10:00
Clouds
  • Broken at 1,000' AGL
Conditions
  • Rain
Probability 40% Temporary Jul-17 @ 14:00 - Jul-17 @ 19:00
Clouds
  • Few at 3,500' AGL
Conditions
  • Thunderstorm
  • Rain
Becoming Jul-17 @ 18:00 - Jul-18 @ 00:00
Wind Visibility
300° at 10 knots 10,000+ meters
Clouds
  • Few at 3,000' AGL